M I D A S
Marine Information and Data Acquisition System
Tripno 829 of the Zeeleeuw from 2004-10-29 06:24:00 to 2004-10-29 15:40:00
Back to CruiseResearch ActivitiesStationsMapUnderway DataData graphs

EquipmentUnitsComments
TimeDGPSUTC
LatitudeDGPSDM.mWGS84
LongitudeDGPSDM.mWGS84
SpeedMeteo Stationm/sRelative wind speed
DirectionMeteo StationdegRelative wind direction
TemperatureMeteo Stationdeg CelciusAir temperature
PressureMeteo StationPaAtmospheric pressure
HumidityMeteo Station%Relative humidity
Missing or incorrect values are displayed as -999
Metereological data collected by the RV Zeeleeuw from 2004-10-29 06:24:00 to 2004-10-29 15:40:00
Time Latitude Longitude Speed Direction Temperature Pressure Humidity
2004-10-29 06:25 51°13.596 2°56.108 2.7 65 10.3 99570 92
2004-10-29 06:26 51°13.615 2°56.028 2.2 73 10.3 99570 92
2004-10-29 06:27 51°13.653 2°55.905 0.6 81 10.3 99570 92
2004-10-29 06:28 51°13.685 2°55.786 1.9 142 10.3 99580 92
2004-10-29 06:29 51°13.696 2°55.762 1.7 146 10.3 99570 92
2004-10-29 06:30 51°13.699 2°55.743 0.8 1 10.2 99570 92
2004-10-29 06:31 51°13.781 2°55.669 1.2 2 10.2 99570 92
2004-10-29 06:32 51°13.911 2°55.572 1.7 10 10.2 99570 92
2004-10-29 06:33 51°14.06 2°55.471 1.9 14 10.2 99580 92
2004-10-29 06:34 51°14.225 2°55.328 2 354 10.2 99570 93
2004-10-29 06:35 51°14.358 2°55.101 2.8 325 10.3 99570 93
2004-10-29 06:36 51°14.518 2°54.877 2.4 312 10.2 99570 93
2004-10-29 06:37 51°14.686 2°54.637 1.1 278 10.3 99570 93
2004-10-29 06:38 51°14.877 2°54.454 1.2 334 10.3 99570 93
2004-10-29 06:39 51°15.083 2°54.272 0.5 203 10.3 99570 93
2004-10-29 06:40 51°15.257 2°54.069 1.7 234 10.4 99570 93
2004-10-29 06:41 51°15.464 2°53.881 1.7 256 10.5 99560 94
2004-10-29 06:42 51°15.659 2°53.687 1.7 265 10.6 99570 94
2004-10-29 06:43 51°15.851 2°53.5 1.7 237 10.7 99570 94
2004-10-29 06:44 51°16.062 2°53.327 1.7 249 10.8 99570 93
2004-10-29 06:45 51°16.27 2°53.163 1.1 227 10.9 99570 94
2004-10-29 06:46 51°16.473 2°53.001 1 254 10.9 99570 93
2004-10-29 06:47 51°16.676 2°52.841 1.6 225 11 99570 93
2004-10-29 06:48 51°16.897 2°52.674 2.2 216 11 99570 93
2004-10-29 06:49 51°17.108 2°52.512 2.6 220 11 99570 93
2004-10-29 06:50 51°17.312 2°52.352 3 216 11.1 99570 93
2004-10-29 06:51 51°17.538 2°52.182 1.7 241 11.1 99570 93
2004-10-29 06:52 51°17.767 2°52.008 2.6 211 11.2 99570 93
2004-10-29 06:53 51°17.973 2°51.852 0.9 217 11.2 99570 92
2004-10-29 06:54 51°18.201 2°51.675 0.7 205 11.3 99570 92
2004-10-29 06:55 51°18.42 2°51.504 2.3 203 11.4 99560 92
2004-10-29 06:56 51°18.638 2°51.332 1.9 228 11.5 99560 92
2004-10-29 06:58 51°18.867 2°51.149 1.5 232 11.5 99570 91
2004-10-29 06:59 51°19.069 2°50.987 2.1 218 11.6 99570 91
2004-10-29 07:00 51°19.326 2°50.781 2.7 222 11.5 99570 90
2004-10-29 07:01 51°19.528 2°50.621 1.2 211 11.5 99580 90
2004-10-29 07:02 51°19.753 2°50.444 1.3 231 11.6 99570 90
2004-10-29 07:03 51°19.959 2°50.281 0.7 311 11.7 99580 89
2004-10-29 07:04 51°20.179 2°50.109 1.6 229 11.7 99580 89
2004-10-29 07:05 51°20.387 2°49.942 1 141 11.7 99580 89
2004-10-29 07:06 51°20.608 2°49.766 1.2 156 11.8 99580 89
2004-10-29 07:07 51°20.812 2°49.601 2.6 224 11.8 99580 89
2004-10-29 07:08 51°21.04 2°49.414 1.5   11.8 99580 88
2004-10-29 07:09 51°21.262 2°49.233 0.6 185 11.8 99580 88
2004-10-29 07:11 51°21.499 2°49.041 0.6 135 11.9 99580 88
2004-10-29 07:12 51°21.703 2°48.877 1.7 168 11.9 99580 88
2004-10-29 07:13 51°21.927 2°48.698 0.2 123 11.9 99580 88
2004-10-29 07:14 51°22.128 2°48.537 0.7 157 11.9 99580 88
2004-10-29 07:15 51°22.349 2°48.361 0.5 214 12 99580 88
2004-10-29 07:16 51°22.577 2°48.183 1.6 207 12 99580 88
2004-10-29 07:17 51°22.783 2°48.055 2.9 152 12.1 99590 87
2004-10-29 07:18 51°22.989 2°47.924 1.9 164 12.1 99590 87
2004-10-29 07:19 51°23.189 2°47.794 2.9 210 12.2 99590 87
2004-10-29 07:20 51°23.403 2°47.66 2.3 186 12.2 99590 86
2004-10-29 07:21 51°23.634 2°47.514 1.7 190 12.2 99590 85
2004-10-29 07:22 51°23.845 2°47.38 1.3 186 12.3 99600 85
2004-10-29 07:23 51°24.069 2°47.237 0.8 201 12.4 99600 85
2004-10-29 07:24 51°24.325 2°47.074 1.1 172 12.5 99590 85
2004-10-29 07:25 51°24.53 2°46.942 3.9 197 12.6 99600 84
2004-10-29 07:26 51°24.74 2°46.805 1.9 167 12.6 99590 83
2004-10-29 07:27 51°24.935 2°46.674 3.4 176 12.6 99590 83
2004-10-29 07:29 51°25.186 2°46.512 3.3 218 12.6 99600 81
2004-10-29 07:30 51°25.403 2°46.409 2.4 153 12.7 99600 81
2004-10-29 07:31 51°25.611 2°46.311 2.3 189 12.7 99600 81
2004-10-29 07:32 51°25.836 2°46.201 2.1 187 12.7 99600 80
2004-10-29 07:33 51°26.044 2°46.108 3.6 174 12.8 99610 81
2004-10-29 07:34 51°26.259 2°46.007 2.9 164 12.9 99610 79
2004-10-29 07:35 51°26.513 2°45.882 1.3 184 13 99610 79
2004-10-29 07:36 51°26.726 2°45.776 0.9 146 13 99610 80
2004-10-29 07:37 51°26.956 2°45.662 1.4 180 13.1 99610 79
2004-10-29 07:38 51°27.207 2°45.538 2.7 201 13.1 99610 79
2004-10-29 07:39 51°27.422 2°45.43 1.7 177 13 99610 79
2004-10-29 07:40 51°27.63 2°45.331 3.1 167 13.1 99610 79
2004-10-29 07:41 51°27.839 2°45.236 3.7 200 13.1 99610 79
2004-10-29 07:42 51°28.045 2°45.135 3.3 217 13.1 99610 77
2004-10-29 07:43 51°28.276 2°45.012 3.6 194 13.1 99610 76
2004-10-29 07:44 51°28.498 2°44.903 3.5 202 13.2 99610 77
2004-10-29 07:45 51°28.698 2°44.812 3.3 214 13.2 99610 76
2004-10-29 07:46 51°28.911 2°44.711 3.8 189 13.3 99620 76
2004-10-29 07:47 51°29.118 2°44.618 2.5 216 13.3 99610 76
2004-10-29 07:49 51°29.31 2°44.544 6.9 164 13.3 99620 76
2004-10-29 07:50 51°29.426 2°44.573 7.7 161 13.3 99610 76
2004-10-29 07:51 51°29.483 2°44.614 10.1 132 13.2 99590 76
2004-10-29 07:52 51°29.504 2°44.63 10.6 143 13.1 99600 77
2004-10-29 07:53 51°29.504 2°44.624 10.8 127 13 99590 77
2004-10-29 07:54 51°29.504 2°44.627 11.3 127 13 99590 77
2004-10-29 07:55 51°29.507 2°44.632 11.5 119 13 99580 77
2004-10-29 07:56 51°29.552 2°44.844 11.4 83 13 99570 78
2004-10-29 07:57 51°29.619 2°45.194 11.8 79 13 99570 78
2004-10-29 07:59 51°29.688 2°45.537 13.1 85 13 99570 78
2004-10-29 08:00 51°29.756 2°45.885 10.2 75 13 99580 79
2004-10-29 08:01 51°29.85 2°46.27 13.2 83 13 99570 78
2004-10-29 08:02 51°29.919 2°46.553 12.4 89 13 99580 79
2004-10-29 08:03 51°30.017 2°46.889 10.9 104 13 99590 79
2004-10-29 08:04 51°30.046 2°47.016 10.6 99 13 99580 77
2004-10-29 08:05 51°30.071 2°47.08 9.9 135 13 99600 78
2004-10-29 08:06 51°30.07 2°47.075 10.6 119 13.1 99600 78
2004-10-29 08:08 51°30.06 2°47.063 10.5 103 13.1 99590 79
2004-10-29 08:09 51°30.052 2°47.072 12.4 99 13.1 99590 79
2004-10-29 08:10 51°30.097 2°47.252 13.4 83 13.1 99590 79
2004-10-29 08:11 51°30.17 2°47.482 9 82 13.1 99600 79
2004-10-29 08:12 51°30.243 2°47.81 12.1 83 13 99590 79
2004-10-29 08:13 51°30.289 2°48.047 9.6 84 12.9 99590 79
2004-10-29 08:14 51°30.322 2°48.188 11.6 97 12.9 99590 80
2004-10-29 08:15 51°30.341 2°48.282 9.4 96 12.8 99590 80
2004-10-29 08:16 51°30.336 2°48.317 9.8 101 12.9 99590 81
2004-10-29 08:17 51°30.33 2°48.32 10.3 110 12.8 99590 80
2004-10-29 08:18 51°30.324 2°48.315 9.8 105 12.8 99600 80
2004-10-29 08:19 51°30.316 2°48.303 11.1 107 12.7 99590 80
2004-10-29 08:21 51°30.302 2°48.293 9.3 93 12.8 99600 80
2004-10-29 08:22 51°30.355 2°48.462 10.2 81 12.8 99590 81
2004-10-29 08:23 51°30.433 2°48.753 9.9 78 12.8 99580 80
2004-10-29 08:24 51°30.492 2°49.036 9.5 74 12.8 99570 81
2004-10-29 08:25 51°30.559 2°49.252 11.2 89 12.8 99590 81
2004-10-29 08:26 51°30.593 2°49.388 9.8 101 12.8 99580 81
2004-10-29 08:27 51°30.621 2°49.471 8.7 113 12.8 99600 81
2004-10-29 08:28 51°30.64 2°49.509 9.5 119 12.7 99600 81
2004-10-29 08:29 51°30.637 2°49.505 8 117 12.7 99600 81
2004-10-29 08:30 51°30.63 2°49.502 9.6 105 12.8 99610 82
2004-10-29 08:31 51°30.624 2°49.504 8.6 110 12.8 99600 81
2004-10-29 08:32 51°30.62 2°49.512 8.3 111 12.8 99610 82
2004-10-29 08:33 51°30.618 2°49.548 12 86 12.8 99600 81
2004-10-29 08:34 51°30.65 2°49.775 10.9 83 12.8 99590 80
2004-10-29 08:35 51°30.697 2°50.037 11.8 84 12.9 99600 80
2004-10-29 08:36 51°30.763 2°50.327 9.9 80 12.8 99600 80
2004-10-29 08:37 51°30.821 2°50.542 9 107 12.8 99610 81
2004-10-29 08:38 51°30.865 2°50.657 9.1 115 12.8 99610 81
2004-10-29 08:39 51°30.905 2°50.757 8.7 124 12.7 99620 80
2004-10-29 08:41 51°30.905 2°50.77 9.8 115 12.8 99620 80
2004-10-29 08:42 51°30.892 2°50.763 9.7 100 12.9 99620 80
2004-10-29 08:43 51°30.879 2°50.757 9.7 94 12.9 99620 80
2004-10-29 08:44 51°30.864 2°50.763 9.2 101 12.9 99620 80
2004-10-29 08:45 51°30.851 2°50.763 9.4 97 12.9 99610 80
2004-10-29 08:46 51°30.851 2°50.9 9.7 81 12.9 99610 80
2004-10-29 08:47 51°30.924 2°51.183 7.2 83 12.9 99610 79
2004-10-29 08:48 51°30.998 2°51.472 8.2 75 13 99610 79
2004-10-29 08:49 51°31.077 2°51.844 7 109 13 99610 79
2004-10-29 08:50 51°31.143 2°51.935 6.6 137 13 99630 79
2004-10-29 08:51 51°31.186 2°51.989 7.7 129 13 99620 80
2004-10-29 08:52 51°31.19 2°51.988 7.9 140 13.1 99630 80
2004-10-29 08:53 51°31.192 2°51.986 9.1 132 13 99630 79
2004-10-29 08:54 51°31.188 2°51.978 9.6 123 13 99630 79
2004-10-29 08:56 51°31.179 2°51.969 9.6 107 13 99630 78
2004-10-29 08:57 51°31.187 2°52.117 10.4 81 13 99620 78
2004-10-29 08:58 51°31.243 2°52.425 10.4 65 13.1 99610 78
2004-10-29 08:59 51°31.311 2°52.787 9.6 74 13 99620 79
2004-10-29 09:00 51°31.373 2°53.059 8.2 105 12.9 99620 79
2004-10-29 09:01 51°31.433 2°53.18 7.5 116 12.9 99640 79
2004-10-29 09:02 51°31.459 2°53.238 9.4 127 12.9 99650 79
2004-10-29 09:04 51°31.462 2°53.239 8 142 13 99640 80
2004-10-29 09:05 51°31.466 2°53.231 7 138 13 99650 79
2004-10-29 09:06 51°31.466 2°53.22 8.6 141 13 99650 80
2004-10-29 09:07 51°31.465 2°53.21 9.1 133 13 99640 79
2004-10-29 09:08 51°31.488 2°53.312 10.1 85 13 99640 79
2004-10-29 09:09 51°31.55 2°53.618 10 70 13 99630 79
2004-10-29 09:10 51°31.615 2°53.963 9.2 74 13 99620 79
2004-10-29 09:11 51°31.672 2°54.238 9.3 92 13 99630 79
2004-10-29 09:12 51°31.712 2°54.391 9.4 110 13.1 99650 79
2004-10-29 09:13 51°31.736 2°54.443 8.2 142 13 99650 79
2004-10-29 09:14 51°31.75 2°54.449 7.9 134 13 99650 78
2004-10-29 09:15 51°31.753 2°54.452 7.3 134 13 99650 79
2004-10-29 09:16 51°31.749 2°54.447 8.2 125 13 99650 79
2004-10-29 09:17 51°31.738 2°54.437 9.1 109 13.1 99660 80
2004-10-29 09:19 51°31.727 2°54.429 7.5 117 13.1 99660 80
2004-10-29 09:20 51°31.715 2°54.433 8.1 115 13 99650 79
2004-10-29 09:21 51°31.707 2°54.448 7.9 113 13.1 99650 80
2004-10-29 09:22 51°31.681 2°54.609 12.7 40 13.1 99640 79
2004-10-29 09:23 51°31.538 2°54.804 13.8 26 13 99620 79
2004-10-29 09:24 51°31.373 2°54.977 12.8 23 13 99630 79
2004-10-29 09:25 51°31.168 2°55.135 14.5 15 13 99640 79
2004-10-29 09:26 51°30.994 2°55.224 11.1 8 13 99640 78
2004-10-29 09:27 51°30.897 2°55.123 8.1 283 13 99650 78
2004-10-29 09:28 51°30.93 2°55.017 3.3 181 13 99680 78
2004-10-29 09:29 51°30.947 2°55.01 8.4 130 13.1 99660 78
2004-10-29 09:30 51°30.941 2°55.008 6.4 127 13.1 99660 78
2004-10-29 09:31 51°30.933 2°55.009 6.6 113 13.2 99660 80
2004-10-29 09:32 51°30.923 2°55.009 7.2 102 13.1 99660 79
2004-10-29 09:33 51°30.901 2°55.057 10.3 49 13.1 99660 79
2004-10-29 09:34 51°30.765 2°55.13 12.7 360 13 99650 78
2004-10-29 09:35 51°30.606 2°54.95 11.9 322 13.1 99630 78
2004-10-29 09:37 51°30.559 2°54.465 9 309 13.1 99650 78
2004-10-29 09:38 51°30.626 2°54.163 7.4 304 13.1 99670 78
2004-10-29 09:39 51°30.661 2°53.939 6.7 266 13.2 99670 78
2004-10-29 09:40 51°30.671 2°53.805 8.8 273 13.3 99680 78
2004-10-29 09:41 51°30.663 2°53.784 8.2 271 13.4 99680 77
2004-10-29 09:42 51°30.656 2°53.762 5.3 250 13.4 99680 77
2004-10-29 09:43 51°30.649 2°53.741 5 256 13.4 99680 77
2004-10-29 09:44 51°30.641 2°53.72 5.7 251 13.3 99680 77
2004-10-29 09:46 51°30.606 2°53.532 10.2 309 13.3 99660 77
2004-10-29 09:47 51°30.531 2°53.19 10.4 227 13.3 99640 77
2004-10-29 09:48 51°30.469 2°52.917 9.2 307 13.3 99650 77
2004-10-29 09:49 51°30.429 2°52.715 8.6 299 13.4 99660 77
2004-10-29 09:50 51°30.401 2°52.591 7.2 273 13.4 99660 77
2004-10-29 09:51 51°30.39 2°52.56 4.7 256 13.4 99670 77
2004-10-29 09:52 51°30.378 2°52.561 7.6 243 13.4 99680 76
2004-10-29 09:53 51°30.369 2°52.556 7.2 228 13.4 99680 76
2004-10-29 09:55 51°30.364 2°52.527 7.3 238 13.4 99680 76
2004-10-29 09:56 51°30.364 2°52.484 6 254 13.4 99680 76
2004-10-29 09:57 51°30.363 2°52.424 8.3 266 13.5 99680 76
2004-10-29 09:58 51°30.343 2°52.319 7.7 286 13.5 99670 76
2004-10-29 09:59 51°30.309 2°52.174 9.1 290 13.5 99670 76
2004-10-29 10:00 51°30.267 2°52.002 8.4 289 13.5 99660 76
2004-10-29 10:01 51°30.237 2°51.858 8.2 294 13.5 99660 75
2004-10-29 10:02 51°30.201 2°51.725 9.4 286 13.6 99670 76
2004-10-29 10:03 51°30.176 2°51.638 8.2 287 13.5 99670 75
2004-10-29 10:04 51°30.161 2°51.578 7.5 267 13.5 99660 75
2004-10-29 10:05 51°30.144 2°51.528 9.3 295 13.5 99660 75
2004-10-29 10:06 51°30.132 2°51.497 6.5 282 13.5 99670 74
2004-10-29 10:07 51°30.122 2°51.464 9.2 276 13.6 99660 75
2004-10-29 10:08 51°30.116 2°51.441 8.4 274 13.5 99670 75
2004-10-29 10:09 51°30.111 2°51.422 7 260 13.6 99670 75
2004-10-29 10:10 51°30.107 2°51.407 5.3 255 13.6 99670 75
2004-10-29 10:11 51°30.104 2°51.394 5.8 256 13.6 99670 75
2004-10-29 10:12 51°30.1 2°51.384 6.6 247 13.6 99670 76
2004-10-29 10:13 51°30.097 2°51.375 5.1 253 13.5 99670 74
2004-10-29 10:14 51°30.094 2°51.359 6 242 13.5 99670 74
2004-10-29 10:15 51°30.09 2°51.333 6.2 245 13.5 99670 75
2004-10-29 10:16 51°30.084 2°51.323 6.9 235 13.5 99670 76
2004-10-29 10:17 51°30.111 2°51.276 5.8 161 13.5 99680 75
2004-10-29 10:18 51°30.115 2°51.262 7.2 134 13.5 99680 76
2004-10-29 10:19 51°30.116 2°51.268 8.2 91 13.4 99680 75
2004-10-29 10:21 51°30.109 2°51.3 7.8 74 13.4 99680 75
2004-10-29 10:22 51°30.103 2°51.318 8.3 83 13.3 99680 76
2004-10-29 10:23 51°30.099 2°51.33 7.1 92 13.3 99680 76
2004-10-29 10:24 51°30.094 2°51.33 8.5 89 13.3 99680 76
2004-10-29 10:25 51°30.092 2°51.324 8.6 90 13.2 99680 77
2004-10-29 10:26 51°30.089 2°51.317 6.9 90 13.2 99690 76
2004-10-29 10:27 51°30.086 2°51.312 8.5 91 13.2 99680 77
2004-10-29 10:28 51°30.072 2°51.342 8.6 29 13.3 99680 77
2004-10-29 10:29 51°29.994 2°51.335 9 307 13.3 99670 77
2004-10-29 10:30 51°29.948 2°51.09 9.7 42 13.4 99670 77
2004-10-29 10:31 51°29.904 2°50.721 9.8 310 13.4 99660 77
2004-10-29 10:32 51°29.877 2°50.404 9.6 293 13.4 99660 76
2004-10-29 10:33 51°29.853 2°50.217 8.5 287 13.4 99660 76
2004-10-29 10:34 51°29.831 2°50.106 8.7 271 13.5 99660 75
2004-10-29 10:35 51°29.822 2°50.08 7.7 264 13.5 99670 76
2004-10-29 10:36 51°29.819 2°50.07 6.1 256 13.5 99660 76
2004-10-29 10:38 51°29.816 2°50.071 7.4 243 13.5 99670 75
2004-10-29 10:39 51°29.812 2°50.078 6.6 237 13.5 99670 75
2004-10-29 10:40 51°29.814 2°50.031 6.5 286 13.5 99670 76
2004-10-29 10:41 51°29.77 2°49.744 9.4 231 13.5 99650 76
2004-10-29 10:42 51°29.667 2°49.361 11.1 313 13.5 99640 75
2004-10-29 10:43 51°29.604 2°49.049 9.2 297 13.5 99650 74
2004-10-29 10:44 51°29.572 2°48.921 8 282 13.5 99660 75
2004-10-29 10:45 51°29.562 2°48.863 6.9 256 13.5 99660 74
2004-10-29 10:46 51°29.56 2°48.854 5.7 254 13.5 99670 75
2004-10-29 10:47 51°29.561 2°48.855 7.7 252 13.5 99670 75
2004-10-29 10:48 51°29.563 2°48.857 7 252 13.5 99670 75
2004-10-29 10:49 51°29.565 2°48.858 9.2 238 13.5 99670 75
2004-10-29 10:51 51°29.568 2°48.819 9.8 288 13.5 99660 76
2004-10-29 10:52 51°29.517 2°48.608 9.6 308 13.4 99660 76
2004-10-29 10:53 51°29.439 2°48.273 12 42 13.5 99640 76
2004-10-29 10:54 51°29.35 2°47.954 9.5 302 13.5 99630 75
2004-10-29 10:55 51°29.308 2°47.769 9.1 284 13.5 99650 75
2004-10-29 10:56 51°29.29 2°47.674 9 273 13.5 99650 75
2004-10-29 10:57 51°29.289 2°47.648 6.6 256 13.5 99660 75
2004-10-29 10:58 51°29.291 2°47.636 7.9 258 13.5 99650 75
2004-10-29 10:59 51°29.292 2°47.627 7.7 262 13.5 99650 76
2004-10-29 11:00 51°29.295 2°47.627 7.6 259 13.5 99650 76
2004-10-29 11:01 51°29.302 2°47.633 8.3 262 13.5 99650 76
2004-10-29 11:02 51°29.264 2°47.509 11 301 13.5 99640 76
2004-10-29 11:03 51°29.211 2°47.235 10.3 312 13.5 99640 76
2004-10-29 11:04 51°29.132 2°46.955 12.5 313 13.5 99630 76
2004-10-29 11:05 51°29.054 2°46.655 9.9 304 13.5 99630 76
2004-10-29 11:06 51°29.007 2°46.481 8 283 13.4 99640 75
2004-10-29 11:07 51°28.99 2°46.413 11.7 270 13.5 99640 76
2004-10-29 11:08 51°28.992 2°46.401 10.1 283 13.5 99650 76
2004-10-29 11:10 51°28.998 2°46.403 9.5 278 13.5 99640 76
2004-10-29 11:11 51°29.008 2°46.414 9.1 276 13.5 99640 76
2004-10-29 11:12 51°29.015 2°46.411 8.9 287 13.5 99640 77
2004-10-29 11:13 51°28.942 2°46.347 12.6 344 13.5 99620 76
2004-10-29 11:14 51°28.838 2°46.468 12.8 33 13.5 99630 76
2004-10-29 11:15 51°28.797 2°46.737 13.3 33 13.5 99620 76
2004-10-29 11:16 51°28.75 2°46.988 12.4 25 13.5 99620 77
2004-10-29 11:17 51°28.67 2°47.247 13 28 13.5 99630 78
2004-10-29 11:19 51°28.595 2°47.574 12.7 26 13.5 99630 78
2004-10-29 11:20 51°28.525 2°47.91 12 33 13.5 99620 77
2004-10-29 11:21 51°28.482 2°48.081 10.3 30 13.5 99640 77
2004-10-29 11:22 51°28.466 2°48.178 7.7 30 13.5 99640 78
2004-10-29 11:23 51°28.474 2°48.22 7.5 57 13.4 99630 78
2004-10-29 11:24 51°28.492 2°48.232 8 92 13.4 99630 77
2004-10-29 11:25 51°28.501 2°48.233 8.6 109 13.5 99630 78
2004-10-29 11:27 51°28.511 2°48.243 8.7 132 13.5 99630 78
2004-10-29 11:28 51°28.523 2°48.259 8.4 128 13.5 99630 77
2004-10-29 11:29 51°28.562 2°48.317 8.9 94 13.5 99630 78
2004-10-29 11:30 51°28.667 2°48.531 11.5 64 13.5 99620 78
2004-10-29 11:31 51°28.765 2°48.835 12.4 48 13.5 99620 79
2004-10-29 11:32 51°28.819 2°49.149 12.6 56 13.4 99610 78
2004-10-29 11:33 51°28.822 2°49.352 10.2 22 13.4 99630 79
2004-10-29 11:34 51°28.785 2°49.43 8.9 331 13.4 99640 78
2004-10-29 11:35 51°28.756 2°49.448 9.4 305 13.5 99630 79
2004-10-29 11:36 51°28.744 2°49.451 8 296 13.4 99640 79
2004-10-29 11:37 51°28.742 2°49.459 8.4 292 13.5 99640 79
2004-10-29 11:38 51°28.74 2°49.462 8.4 274 13.5 99640 80
2004-10-29 11:39 51°28.74 2°49.459 8.2 264 13.5 99640 80
2004-10-29 11:40 51°28.743 2°49.451 5.6 261 13.5 99650 80
2004-10-29 11:41 51°28.753 2°49.407 6.4 231 13.4 99650 81
2004-10-29 11:42 51°28.908 2°49.394 7.8 83 13.4 99650 80
2004-10-29 11:44 51°28.991 2°49.73 13.5 36 13.4 99630 80
2004-10-29 11:45 51°29.014 2°50.06 13.3 32 13.4 99620 80
2004-10-29 11:46 51°28.988 2°50.244 11 47 13.3 99610 80
2004-10-29 11:47 51°29 2°50.382 9.8 53 13.3 99640 80
2004-10-29 11:48 51°29.017 2°50.447 7.3 73 13.2 99630 80
2004-10-29 11:49 51°29.035 2°50.465 9.2 81 13.3 99640 80
2004-10-29 11:50 51°29.051 2°50.488 9.2 105 13.2 99650 81
2004-10-29 11:51 51°29.071 2°50.519 8.2 110 13.2 99640 81
2004-10-29 11:52 51°29.095 2°50.559 7.9 94 13.2 99640 81
2004-10-29 11:53 51°29.103 2°50.699 10.4   13.2 99640 81
2004-10-29 11:54 51°29.052 2°50.739 8.3 296 13.2 99630 82
2004-10-29 11:56 51°29.036 2°50.714 9.8 277 13.3 99660 82
2004-10-29 11:57 51°29.026 2°50.685 9.8 262 13.3 99660 82
2004-10-29 11:58 51°29.017 2°50.661 9.3 286 13.3 99660 82
2004-10-29 11:59 51°29.01 2°50.655 8.2 284 13.3 99650 82
2004-10-29 12:00 51°29.012 2°50.663 9.2 291 13.3 99650 81
2004-10-29 12:01 51°29.018 2°50.679 9.2 276 13.3 99650 82
2004-10-29 12:02 51°29.027 2°50.7 9.7 281 13.3 99650 81
2004-10-29 12:03 51°29.02 2°50.603 5 244 13.3 99660 81
2004-10-29 12:04 51°29.125 2°50.559 8.4 94 13.3 99650 82
2004-10-29 12:05 51°29.186 2°50.78 14.5 38 13.3 99640 82
2004-10-29 12:06 51°29.228 2°51.189 14.6 37 13.2 99620 81
2004-10-29 12:08 51°29.263 2°51.594 15.1 36 13.2 99620 81
2004-10-29 12:09 51°29.299 2°51.937 9.6 71 13.2 99630 81
2004-10-29 12:10 51°29.35 2°52.028 7.7 135 13.2 99650 81
2004-10-29 12:11 51°29.406 2°52.037 5.8 211 13.2 99660 80
2004-10-29 12:12 51°29.434 2°52.051 10 264 13.2 99680 80
2004-10-29 12:13 51°29.404 2°52.007 12.2 304 13.3 99650 81
2004-10-29 12:14 51°29.359 2°51.951 10.9 297 13.3 99650 81
2004-10-29 12:15 51°29.321 2°51.915 10.4 294 13.3 99650 81
2004-10-29 12:16 51°29.3 2°51.894 10.1 292 13.3 99650 81
2004-10-29 12:17 51°29.294 2°51.894 10.6 296 13.3 99650 81
2004-10-29 12:18 51°29.298 2°51.897 9 272 13.3 99650 81
2004-10-29 12:19 51°29.309 2°51.907 10 268 13.3 99650 81
2004-10-29 12:20 51°29.322 2°51.923 10.8 278 13.3 99650 80
2004-10-29 12:22 51°29.349 2°51.958 8.5 276 13.3 99640 81
2004-10-29 12:23 51°29.331 2°51.978 10.6 344 13.3 99630 81
2004-10-29 12:24 51°29.298 2°52.153 13.8 45 13.3 99630 81
2004-10-29 12:25 51°29.401 2°52.495 12.2 62 13.3 99620 80
2004-10-29 12:26 51°29.482 2°52.794 8.8 78 13.3 99630 81
2004-10-29 12:27 51°29.523 2°52.959 9.5 57 13.3 99640 81
2004-10-29 12:28 51°29.553 2°53.077 8.7 74 13.3 99630 81
2004-10-29 12:29 51°29.574 2°53.096 8.9 100 13.3 99640 81
2004-10-29 12:31 51°29.589 2°53.105 10.8 122 13.4 99640 82
2004-10-29 12:32 51°29.605 2°53.127 8.6 132 13.3 99640 81
2004-10-29 12:33 51°29.628 2°53.16 9.6 130 13.4 99640 81
2004-10-29 12:34 51°29.652 2°53.192 10.3 131 13.4 99640 81
2004-10-29 12:35 51°29.677 2°53.229 9.2 108 13.4 99640 81
2004-10-29 12:36 51°29.779 2°53.397 9.8 92 13.4 99630 81
2004-10-29 12:37 51°29.955 2°53.644 14 59 13.4 99650 81
2004-10-29 12:38 51°29.992 2°54.047 12.2 31 13.4 99630 81
2004-10-29 12:39 51°29.954 2°54.278 13 5 13.4 99640 80
2004-10-29 12:40 51°29.902 2°54.347 11.3 314 13.4 99640 80
2004-10-29 12:41 51°29.881 2°54.336 9.1 295 13.4 99630 80
2004-10-29 12:42 51°29.865 2°54.337 9.7 307 13.5 99630 80
2004-10-29 12:43 51°29.858 2°54.349 9.6 299 13.5 99640 81
2004-10-29 12:44 51°29.857 2°54.36 9 292 13.5 99630 80
2004-10-29 12:45 51°29.86 2°54.368 8.9 284 13.5 99640 80
2004-10-29 12:46 51°29.866 2°54.373 7.5 287 13.5 99640 80
2004-10-29 12:47 51°29.871 2°54.379 10.5 288 13.5 99650 81
2004-10-29 12:48 51°29.876 2°54.386 9.1 291 13.5 99630 80
2004-10-29 12:49 51°29.881 2°54.372 6.1 257 13.5 99640 80
2004-10-29 12:50 51°29.939 2°54.333 7.4 155 13.5 99660 80
2004-10-29 12:51 51°30.074 2°54.467 8.2 79 13.6 99630 80
2004-10-29 12:53 51°30.204 2°54.885 13.5 53 13.6 99620 81
2004-10-29 12:54 51°30.268 2°55.257 14.2 38 13.5 99600 80
2004-10-29 12:55 51°30.24 2°55.5 11.9 358 13.5 99630 80
2004-10-29 12:56 51°30.141 2°55.56 9.5 315 13.6 99630 80
2004-10-29 12:57 51°30.118 2°55.548 8.4 279 13.5 99630 80
2004-10-29 12:58 51°30.126 2°55.551 11.1 270 13.6 99640 80
2004-10-29 12:59 51°30.139 2°55.563 9 285 13.6 99640 81
2004-10-29 13:00 51°30.157 2°55.585 8.4 282 13.6 99640 81
2004-10-29 13:01 51°30.175 2°55.609 9.2 271 13.6 99650 81
2004-10-29 13:02 51°30.2 2°55.641 7.9 285 13.6 99640 81
2004-10-29 13:04 51°30.218 2°55.609 5.2 231 13.6 99660 80
2004-10-29 13:05 51°30.351 2°55.635 9 88 13.6 99650 81
2004-10-29 13:06 51°30.486 2°55.921 12.5 49 13.6 99630 81
2004-10-29 13:07 51°30.574 2°56.328 12.4 30 13.6 99630 80
2004-10-29 13:08 51°30.549 2°56.694 11.8 4 13.6 99640 80
2004-10-29 13:09 51°30.435 2°56.756 10.3 319 13.7 99630 80
2004-10-29 13:10 51°30.387 2°56.755 9.1 294 13.7 99640 80
2004-10-29 13:11 51°30.395 2°56.769 7.4 279 13.7 99650 80
2004-10-29 13:12 51°30.411 2°56.783 7.8 280 13.7 99660 80
2004-10-29 13:13 51°30.429 2°56.803 7.2 284 13.7 99650 80
2004-10-29 13:14 51°30.449 2°56.828 8 278 13.7 99650 81
2004-10-29 13:15 51°30.476 2°56.864 8.9 273 13.7 99650 81
2004-10-29 13:16 51°30.498 2°56.892 6.9 282 13.7 99650 81
2004-10-29 13:17 51°30.525 2°56.926 5.8 271 13.7 99650 81
2004-10-29 13:19 51°30.55 2°56.959 7.3 267 13.7 99650 81
2004-10-29 13:20 51°30.577 2°56.993 7.9 281 13.7 99650 81
2004-10-29 13:21 51°30.561 2°56.981 9 303 13.7 99650 81
2004-10-29 13:22 51°30.483 2°56.884 10 318 13.7 99630 81
2004-10-29 13:23 51°30.423 2°56.786 7.7 285 13.7 99650 81
2004-10-29 13:24 51°30.393 2°56.767 8.1 320 13.7 99630 81
2004-10-29 13:25 51°30.386 2°56.787 9.2 309 13.6 99640 81
2004-10-29 13:26 51°30.39 2°56.811 8.3 313 13.7 99650 81
2004-10-29 13:27 51°30.401 2°56.837 7.9 315 13.7 99650 81
2004-10-29 13:28 51°30.362 2°56.781 7.4 285 13.7 99640 81
2004-10-29 13:29 51°30.337 2°56.638 8.6 306 13.7 99650 81
2004-10-29 13:30 51°30.243 2°56.477 11.1 316 13.7 99630 81
2004-10-29 13:31 51°30.092 2°56.235 12.5 322 13.7 99620 81
2004-10-29 13:33 51°29.922 2°55.953 12.4 319 13.7 99610 81
2004-10-29 13:34 51°29.812 2°55.691 10 229 13.7 99630 81
2004-10-29 13:35 51°29.689 2°55.37 11 315 13.7 99620 81
2004-10-29 13:36 51°29.582 2°55.113 10.7 226 13.7 99620 81
2004-10-29 13:37 51°29.46 2°54.824 12.1 42 13.8 99620 81
2004-10-29 13:38 51°29.339 2°54.529 10.5 228 13.7 99620 81
2004-10-29 13:39 51°29.224 2°54.25 11.3 321 13.8 99620 81
2004-10-29 13:40 51°29.094 2°53.94 10 319 13.7 99620 81
2004-10-29 13:41 51°28.988 2°53.679 11.2 320 13.7 99620 81
2004-10-29 13:42 51°28.881 2°53.417 10.8 44 13.8 99620 81
2004-10-29 13:44 51°28.772 2°53.145 10.6 320 13.8 99620 81
2004-10-29 13:45 51°28.665 2°52.886 9.7 317 13.8 99620 81
2004-10-29 13:46 51°28.524 2°52.536 11.2 317 13.8 99620 82
2004-10-29 13:47 51°28.422 2°52.281 11.2 315 13.8 99620 81
2004-10-29 13:48 51°28.302 2°51.981 10.5 316 13.7 99610 81
2004-10-29 13:49 51°28.191 2°51.726 11.9 226 13.8 99610 81
2004-10-29 13:50 51°28.067 2°51.44 9.6 227 13.8 99610 81
2004-10-29 13:51 51°27.955 2°51.183 10.7 43 13.8 99610 81
2004-10-29 13:52 51°27.832 2°50.902 11.1 316 13.8 99610 81
2004-10-29 13:53 51°27.716 2°50.639 11.2 318 13.8 99610 82
2004-10-29 13:54 51°27.596 2°50.365 10.2 316 13.8 99610 82
2004-10-29 13:55 51°27.459 2°50.059 9.5 318 13.8 99620 82
2004-10-29 13:57 51°27.288 2°49.665 11.3 322 13.8 99610 83
2004-10-29 13:58 51°27.131 2°49.322 11.3 318 13.8 99610 82
2004-10-29 13:59 51°27.009 2°49.058 10.5 319 13.8 99610 82
2004-10-29 14:00 51°26.872 2°48.758 11.1 318 13.8 99610 82
2004-10-29 14:01 51°26.736 2°48.459 11.2 41 13.8 99600 82
2004-10-29 14:03 51°26.595 2°48.151 11.5 43 13.8 99600 81
2004-10-29 14:04 51°26.45 2°47.835 11.3 321 13.8 99600 81
2004-10-29 14:05 51°26.331 2°47.57 11.9 323 13.8 99600 80
2004-10-29 14:06 51°26.211 2°47.304 10.8 327 13.9 99600 81
2004-10-29 14:07 51°26.062 2°46.968 11.4 326 13.9 99600 80
2004-10-29 14:08 51°25.934 2°46.676 11.9 322 13.9 99590 80
2004-10-29 14:09 51°25.812 2°46.396 12.1 320 13.9 99590 80
2004-10-29 14:10 51°25.692 2°46.13 12 318 13.9 99600 80
2004-10-29 14:11 51°25.547 2°45.801 12.5 321 13.9 99600 80
2004-10-29 14:12 51°25.427 2°45.533 11.2 323 13.9 99600 80
2004-10-29 14:13 51°25.308 2°45.263 11.1 315 13.9 99590 80
2004-10-29 14:14 51°25.19 2°45.001 12.4 318 13.9 99600 80
2004-10-29 14:15 51°25.084 2°44.718 11.5 320 13.9 99600 80
2004-10-29 14:16 51°24.97 2°44.415 10.7 319 13.9 99590 80
2004-10-29 14:17 51°24.848 2°44.096 11.5 316 13.9 99600 80
2004-10-29 14:19 51°24.72 2°43.767 10.6 318 13.9 99590 80
2004-10-29 14:20 51°24.595 2°43.445 11.3 320 13.9 99600 80
2004-10-29 14:21 51°24.48 2°43.203 9.6 308 13.9 99600 81
2004-10-29 14:22 51°24.426 2°43.079 9.4 233 13.9 99620 81
2004-10-29 14:23 51°24.384 2°42.997 8 300 13.9 99630 81
2004-10-29 14:24 51°24.379 2°42.964 8 276 13.9 99640 82
2004-10-29 14:25 51°24.39 2°42.963 8.4 292 13.9 99630 81
2004-10-29 14:26 51°24.407 2°42.978 6.7 293 13.9 99640 82
2004-10-29 14:27 51°24.424 2°42.998 7.8 312 13.9 99630 82
2004-10-29 14:28 51°24.434 2°43.018 7.4 336 13.9 99640 82
2004-10-29 14:30 51°24.424 2°43.06 9.3 356 13.9 99640 82
2004-10-29 14:31 51°24.316 2°43.234 14 9 13.8 99640 82
2004-10-29 14:32 51°24.156 2°43.473 13.8 6 13.8 99640 82
2004-10-29 14:33 51°23.97 2°43.744 14.5 6 13.9 99630 82
2004-10-29 14:34 51°23.807 2°43.977 14.3 5 13.8 99640 81
2004-10-29 14:35 51°23.615 2°44.243 14.2 2 13.8 99640 82
2004-10-29 14:36 51°23.421 2°44.499 14.1 5 13.9 99630 82
2004-10-29 14:37 51°23.236 2°44.744 14.7 3 13.9 99640 82
2004-10-29 14:38 51°23.06 2°44.978 13.8 4 13.9 99640 82
2004-10-29 14:39 51°22.892 2°45.196 13.5 2 13.9 99620 82
2004-10-29 14:40 51°22.704 2°45.438 13.1 3 13.9 99630 81
2004-10-29 14:41 51°22.514 2°45.683 13.8 3 13.9 99620 81
2004-10-29 14:42 51°22.34 2°45.908 14 2 13.9 99630 81
2004-10-29 14:44 51°22.114 2°46.201 13.6 358 13.9 99640 80
2004-10-29 14:45 51°21.902 2°46.387 17.2 357 14 99630 81
2004-10-29 14:46 51°21.701 2°46.561 14.6 359 14 99630 80
2004-10-29 14:47 51°21.45 2°46.786 15 360 14 99640 80
2004-10-29 14:48 51°21.233 2°46.978 13.6 2 14 99630 80
2004-10-29 14:49 51°21.046 2°47.161 14 358 14 99630 80
2004-10-29 14:50 51°20.855 2°47.36 13.2 5 14 99630 79
2004-10-29 14:51 51°20.666 2°47.553 13.9 4 14 99640 80
2004-10-29 14:53 51°20.403 2°47.824 14.1 1 14 99640 80
2004-10-29 14:54 51°20.19 2°48.041 14.1 2 14 99640 80
2004-10-29 14:55 51°20.006 2°48.231 13.9 4 14 99640 80
2004-10-29 14:56 51°19.816 2°48.431 13 5 14 99640 80
2004-10-29 14:57 51°19.593 2°48.659 14.5 3 13.9 99630 80
2004-10-29 14:58 51°19.377 2°48.887 13.2 3 13.9 99650 80
2004-10-29 14:59 51°19.159 2°49.106 14.4 2 13.9 99650 80
2004-10-29 15:00 51°18.973 2°49.297 14.2 6 13.9 99650 80
2004-10-29 15:01 51°18.765 2°49.52 14.7 6 13.9 99650 80
2004-10-29 15:02 51°18.577 2°49.734 14.2 2 13.9 99660 80
2004-10-29 15:03 51°18.399 2°49.938 14.7 4 13.9 99650 80
2004-10-29 15:05 51°18.195 2°50.185 14.8 8 13.9 99660 80
2004-10-29 15:06 51°17.974 2°50.455 15.2 9 13.9 99660 80
2004-10-29 15:07 51°17.77 2°50.703 14.6 9 13.9 99650 80
2004-10-29 15:08 51°17.594 2°50.913 14.9 9 13.9 99650 80
2004-10-29 15:09 51°17.398 2°51.158 13.1 8 13.9 99660 80
2004-10-29 15:10 51°17.217 2°51.389 13.6 11 13.9 99670 80
2004-10-29 15:11 51°17.04 2°51.609 14.2 9 13.9 99660 80
2004-10-29 15:13 51°16.771 2°51.88 13.2 4 13.9 99670 80
2004-10-29 15:14 51°16.535 2°52.106 12.9 2 13.9 99670 80
2004-10-29 15:15 51°16.263 2°52.37 13 4 13.9 99660 80
2004-10-29 15:16 51°16.073 2°52.554 12.9 4 13.8 99660 80
2004-10-29 15:17 51°15.865 2°52.768 13.5 6 13.8 99660 80
2004-10-29 15:18 51°15.667 2°52.991 12.7 360 13.8 99660 80
2004-10-29 15:19 51°15.491 2°53.219 14.3 6 13.8 99680 80
2004-10-29 15:20 51°15.318 2°53.452 12.9 7 13.8 99670 80
2004-10-29 15:21 51°15.126 2°53.604 12.6 359 13.8 99670 80
2004-10-29 15:22 51°14.939 2°53.705 11.5 348 13.8 99680 80
2004-10-29 15:23 51°14.8 2°53.76 11.5 342 13.8 99670 80
2004-10-29 15:25 51°14.682 2°53.837 6.9 356 13.8 99670 79
2004-10-29 15:26 51°14.609 2°53.922 8 358 13.8 99680 80
2004-10-29 15:27 51°14.534 2°54.057 7.9 20 13.7 99680 79
2004-10-29 15:28 51°14.494 2°54.272 10.2 24 13.7 99680 79
2004-10-29 15:29 51°14.428 2°54.632 11.7 29 13.7 99670 79
2004-10-29 15:30 51°14.367 2°54.998 9 23 13.7 99680 79
2004-10-29 15:32 51°14.207 2°55.346 9.5 2 13.7 99670 79
2004-10-29 15:33 51°14.071 2°55.454 8.8 354 13.7 99680 79
2004-10-29 15:34 51°13.943 2°55.548 6.8 358 13.7 99680 79
2004-10-29 15:35 51°13.788 2°55.67 6.8 5 13.7 99680 79
2004-10-29 15:36 51°13.694 2°55.826 8.1 14 13.7 99690 80
2004-10-29 15:37 51°13.636 2°55.989 5.1 8 13.7 99680 80
2004-10-29 15:39 51°13.601 2°56.095 3.5 12 13.7 99690 80